Time;durP1;ratioP1;P1;durP2;ratioP2;P2;SDS_P1;SDS_P2;PMS_P1;PMS_P2;Temp;Humidity;BMP_temperature;BMP_pressure;BME280_temperature;BME280_humidity;BME280_pressure;Samples;Min_cycle;Max_cycle;Signal;HPM_P1;HPM_P2
2023/07/11 00:01:53;;;;;;;6.07;2.03;;;19.30;99.90;;;;;;5009223;28;20095;-70
2023/07/11 00:04:18;;;;;;;6.22;2.50;;;19.30;99.90;;;;;;4992716;28;20072;-70
2023/07/11 00:06:44;;;;;;;7.28;2.83;;;19.30;99.90;;;;;;5010404;28;20038;-70
2023/07/11 00:09:09;;;;;;;4.40;2.00;;;19.30;99.90;;;;;;5007459;28;20065;-70
2023/07/11 00:11:35;;;;;;;7.15;2.33;;;19.30;99.90;;;;;;5009427;28;20037;-70
2023/07/11 00:14:00;;;;;;;5.70;2.45;;;19.30;99.90;;;;;;5011602;28;20030;-70
2023/07/11 00:16:26;;;;;;;10.88;2.58;;;19.30;99.90;;;;;;5015534;28;20041;-70
2023/07/11 00:18:52;;;;;;;6.53;2.40;;;19.30;99.90;;;;;;5007967;28;20083;-71
2023/07/11 00:21:18;;;;;;;5.13;2.33;;;19.30;99.90;;;;;;5011570;28;20040;-70
2023/07/11 00:23:43;;;;;;;7.72;2.83;;;19.30;99.90;;;;;;5008355;28;20041;-70
2023/07/11 00:26:09;;;;;;;6.53;2.50;;;19.30;99.90;;;;;;5008477;28;20132;-70
2023/07/11 00:28:34;;;;;;;6.68;2.58;;;19.20;99.90;;;;;;5008589;28;20033;-70
2023/07/11 00:31:01;;;;;;;5.78;2.33;;;19.20;99.90;;;;;;4990237;28;20384;-70
2023/07/11 00:33:26;;;;;;;6.43;2.17;;;19.20;99.90;;;;;;4994148;28;20433;-70
2023/07/11 00:35:53;;;;;;;7.35;2.22;;;19.20;99.90;;;;;;5010095;28;20022;-71
2023/07/11 00:38:20;;;;;;;6.63;2.40;;;19.20;99.90;;;;;;5008262;28;20057;-70
2023/07/11 00:40:49;;;;;;;6.13;2.50;;;19.10;99.90;;;;;;5009129;28;20037;-71
2023/07/11 00:43:19;;;;;;;6.43;3.05;;;19.10;99.90;;;;;;5013240;28;20036;-70
2023/07/11 00:46:16;;;;;;;6.38;1.92;;;19.10;99.90;;;;;;5016967;28;20034;-70
2023/07/11 00:48:54;;;;;;;6.65;1.95;;;19.20;99.90;;;;;;5008066;28;20099;-70
2023/07/11 00:51:34;;;;;;;7.70;2.47;;;19.10;99.90;;;;;;5009449;28;20411;-70
2023/07/11 00:54:01;;;;;;;6.38;2.35;;;19.00;99.90;;;;;;5009921;28;20021;-70
2023/07/11 00:56:29;;;;;;;5.68;2.47;;;19.00;99.90;;;;;;5011187;28;20376;-70
2023/07/11 00:58:57;;;;;;;6.07;2.25;;;18.90;99.90;;;;;;5004622;28;20861;-70
2023/07/11 01:01:23;;;;;;;7.45;2.90;;;19.00;99.90;;;;;;5012622;28;20037;-70
2023/07/11 01:03:51;;;;;;;8.40;2.50;;;18.90;99.90;;;;;;5014441;28;20050;-70
2023/07/11 01:06:20;;;;;;;10.18;3.03;;;18.90;99.90;;;;;;5007066;28;20036;-70
2023/07/11 01:08:48;;;;;;;5.03;2.80;;;18.90;99.90;;;;;;4987505;28;20068;-70
2023/07/11 01:11:14;;;;;;;6.25;2.65;;;18.90;99.90;;;;;;5018459;28;20041;-70
2023/07/11 01:13:39;;;;;;;5.68;2.42;;;18.90;99.90;;;;;;5026983;28;20083;-70
2023/07/11 01:16:05;;;;;;;5.32;2.10;;;18.80;99.90;;;;;;5018450;28;20029;-70
2023/07/11 01:18:31;;;;;;;6.05;1.90;;;18.70;99.90;;;;;;5007350;28;20128;-70
2023/07/11 01:20:57;;;;;;;4.32;2.53;;;18.60;99.90;;;;;;5006434;28;20042;-70
2023/07/11 01:23:23;;;;;;;4.45;2.08;;;18.60;99.90;;;;;;5002136;28;22149;-70
2023/07/11 01:25:49;;;;;;;5.28;2.63;;;18.50;99.90;;;;;;5010583;28;20280;-71
2023/07/11 01:28:15;;;;;;;10.60;2.63;;;18.40;99.90;;;;;;5006378;28;20025;-70
2023/07/11 01:30:40;;;;;;;7.40;2.67;;;18.40;99.90;;;;;;4998681;28;20099;-70
2023/07/11 01:33:06;;;;;;;5.90;2.88;;;18.30;99.90;;;;;;5030832;28;20026;-70
2023/07/11 01:35:32;;;;;;;7.95;3.13;;;18.30;99.90;;;;;;5016045;28;20509;-70
2023/07/11 01:37:57;;;;;;;9.35;3.15;;;18.20;99.90;;;;;;5008408;28;20072;-70
2023/07/11 01:40:23;;;;;;;5.82;2.90;;;18.10;99.90;;;;;;5003871;28;20025;-70
2023/07/11 01:42:50;;;;;;;7.07;2.88;;;18.10;99.90;;;;;;5012449;28;20109;-70
2023/07/11 01:45:16;;;;;;;5.75;2.90;;;18.00;99.90;;;;;;5011974;28;20030;-70
2023/07/11 01:47:41;;;;;;;6.72;3.00;;;18.00;99.90;;;;;;4993397;28;20037;-70
2023/07/11 01:50:08;;;;;;;5.28;2.75;;;18.00;99.90;;;;;;5012893;28;20108;-69
2023/07/11 01:52:34;;;;;;;5.25;2.72;;;17.90;99.90;;;;;;5009028;28;20029;-70
2023/07/11 01:55:00;;;;;;;4.75;3.30;;;17.80;99.90;;;;;;5011651;28;20510;-69
2023/07/11 01:57:25;;;;;;;6.93;3.10;;;17.70;99.90;;;;;;5009644;28;20068;-70
2023/07/11 01:59:51;;;;;;;6.40;3.05;;;17.60;99.90;;;;;;5011187;28;20025;-70
2023/07/11 02:02:17;;;;;;;6.97;3.40;;;17.60;99.90;;;;;;5011723;28;20056;-70
2023/07/11 02:04:44;;;;;;;9.40;3.60;;;17.50;99.90;;;;;;4996431;28;20112;-69
2023/07/11 02:07:09;;;;;;;6.38;3.15;;;17.40;99.90;;;;;;4996518;28;20045;-69
2023/07/11 02:09:35;;;;;;;10.43;3.55;;;17.40;99.90;;;;;;5010756;28;20032;-70
2023/07/11 02:12:01;;;;;;;6.90;2.92;;;17.30;99.90;;;;;;5010522;28;20033;-70
2023/07/11 02:14:27;;;;;;;7.78;3.05;;;17.30;99.90;;;;;;5012962;28;20434;-70
2023/07/11 02:16:52;;;;;;;9.60;3.67;;;17.20;99.90;;;;;;5017153;28;20030;-70
2023/07/11 02:19:21;;;;;;;6.55;3.35;;;17.20;99.90;;;;;;5014561;28;20041;-69
2023/07/11 02:21:47;;;;;;;10.73;4.55;;;17.20;99.90;;;;;;4994882;28;20164;-69
2023/07/11 02:24:15;;;;;;;8.50;3.97;;;17.10;99.90;;;;;;5010412;28;20088;-70
2023/07/11 02:26:40;;;;;;;6.80;4.30;;;17.10;99.90;;;;;;5009757;28;20079;-69
2023/07/11 02:29:07;;;;;;;8.95;3.97;;;17.10;99.90;;;;;;5010884;28;20037;-69
2023/07/11 02:31:34;;;;;;;7.78;5.00;;;17.10;99.90;;;;;;5015032;28;20029;-69
2023/07/11 02:34:01;;;;;;;9.07;4.38;;;17.00;99.90;;;;;;5010171;28;20034;-69
2023/07/11 02:36:27;;;;;;;6.90;4.25;;;17.00;99.90;;;;;;5011902;28;20029;-69
2023/07/11 02:38:53;;;;;;;7.05;4.35;;;17.00;99.90;;;;;;5009912;28;20065;-70
2023/07/11 02:41:19;;;;;;;8.27;4.32;;;16.90;99.90;;;;;;5010992;28;20068;-70
2023/07/11 02:43:48;;;;;;;8.95;3.45;;;16.90;99.90;;;;;;5015243;28;20025;-69
2023/07/11 02:46:15;;;;;;;10.57;4.50;;;16.90;99.90;;;;;;5013084;28;20049;-70
2023/07/11 02:48:42;;;;;;;9.43;3.83;;;16.90;99.90;;;;;;5013576;28;20039;-69
2023/07/11 02:51:08;;;;;;;9.73;4.40;;;16.80;99.90;;;;;;5010012;28;20091;-69
2023/07/11 02:53:33;;;;;;;9.63;4.05;;;16.80;99.90;;;;;;5013800;28;20033;-69
2023/07/11 02:56:02;;;;;;;10.35;4.65;;;16.70;99.90;;;;;;5014136;28;20049;-69
2023/07/11 02:58:28;;;;;;;9.13;4.28;;;16.70;99.90;;;;;;5017023;28;20040;-69
2023/07/11 03:00:56;;;;;;;8.60;4.13;;;16.70;99.90;;;;;;5017121;28;20029;-71
2023/07/11 03:03:22;;;;;;;8.18;4.20;;;16.70;99.90;;;;;;5017753;28;20497;-70
2023/07/11 03:05:49;;;;;;;6.93;3.55;;;16.60;99.90;;;;;;5016472;28;20037;-70
2023/07/11 03:08:16;;;;;;;9.02;4.03;;;16.70;99.90;;;;;;5018260;28;21384;-70
2023/07/11 03:10:42;;;;;;;8.27;4.22;;;16.70;99.90;;;;;;5017395;28;20102;-70
2023/07/11 03:13:08;;;;;;;8.00;4.07;;;16.70;99.90;;;;;;5015952;28;20025;-70
2023/07/11 03:15:35;;;;;;;6.85;4.25;;;16.70;99.90;;;;;;5017512;28;20049;-70
2023/07/11 03:18:00;;;;;;;9.57;4.10;;;16.70;99.90;;;;;;5016807;28;20386;-70
2023/07/11 03:20:26;;;;;;;8.98;3.13;;;16.70;99.90;;;;;;5015273;28;20029;-70
2023/07/11 03:22:52;;;;;;;8.52;3.80;;;16.70;99.90;;;;;;5033254;28;20080;-70
2023/07/11 03:25:17;;;;;;;5.40;3.60;;;16.70;99.90;;;;;;5044312;28;20076;-70
2023/07/11 03:27:43;;;;;;;12.90;4.78;;;16.80;99.90;;;;;;5039850;28;20592;-70
2023/07/11 03:30:09;;;;;;;7.57;4.35;;;16.80;99.90;;;;;;5047019;28;20086;-70
2023/07/11 03:32:34;;;;;;;10.45;4.22;;;16.80;99.90;;;;;;5036262;28;20022;-70
2023/07/11 03:35:00;;;;;;;7.75;3.95;;;16.80;99.90;;;;;;5034687;28;20029;-70
2023/07/11 03:37:28;;;;;;;8.13;4.45;;;16.80;99.90;;;;;;5044501;28;20536;-70
2023/07/11 03:39:54;;;;;;;9.25;4.10;;;16.70;99.90;;;;;;5031559;28;20033;-70
2023/07/11 03:42:20;;;;;;;9.27;4.90;;;16.80;99.90;;;;;;5038052;28;20033;-70
2023/07/11 03:44:45;;;;;;;11.55;5.05;;;16.80;99.90;;;;;;5031034;28;20033;-70
2023/07/11 03:47:11;;;;;;;9.32;4.78;;;16.80;99.90;;;;;;5029974;28;20035;-70
2023/07/11 03:49:37;;;;;;;8.50;4.50;;;16.80;99.90;;;;;;5042474;28;20159;-70
2023/07/11 03:52:03;;;;;;;9.85;4.38;;;16.80;99.90;;;;;;5043196;28;20082;-70
2023/07/11 03:54:29;;;;;;;6.93;4.40;;;16.80;99.90;;;;;;5036317;28;20486;-70
2023/07/11 03:56:54;;;;;;;9.68;4.65;;;16.90;99.90;;;;;;5038121;28;20103;-70
2023/07/11 03:59:20;;;;;;;11.57;4.47;;;16.90;99.90;;;;;;5030739;28;20208;-70
2023/07/11 04:01:47;;;;;;;8.35;4.10;;;16.90;99.90;;;;;;5041846;28;20091;-70
2023/07/11 04:04:13;;;;;;;7.93;4.55;;;17.00;99.90;;;;;;5039287;28;20481;-70
2023/07/11 04:06:38;;;;;;;12.98;4.68;;;17.00;99.90;;;;;;5034658;28;20072;-70
2023/07/11 04:09:04;;;;;;;9.13;4.03;;;17.00;99.90;;;;;;5037692;28;20057;-70
2023/07/11 04:11:29;;;;;;;12.05;4.10;;;17.10;99.90;;;;;;5020927;28;20112;-70
2023/07/11 04:13:55;;;;;;;8.98;4.53;;;17.10;99.90;;;;;;5038865;28;20039;-70
2023/07/11 04:16:21;;;;;;;10.68;4.80;;;17.10;99.90;;;;;;5043302;28;20029;-70
2023/07/11 04:18:46;;;;;;;12.07;4.80;;;17.20;99.90;;;;;;5027854;28;20033;-70
2023/07/11 04:21:12;;;;;;;8.45;4.43;;;17.20;99.90;;;;;;5019246;28;20531;-71
2023/07/11 04:23:37;;;;;;;7.72;3.55;;;17.20;99.90;;;;;;5037358;28;20038;-70
2023/07/11 04:26:03;;;;;;;8.52;4.80;;;17.20;99.90;;;;;;5045584;28;20423;-70
2023/07/11 04:28:30;;;;;;;10.60;4.88;;;17.30;99.90;;;;;;5038368;28;20501;-70
2023/07/11 04:30:55;;;;;;;11.23;4.88;;;17.30;99.90;;;;;;5031809;28;20502;-70
2023/07/11 04:33:21;;;;;;;7.78;4.10;;;17.30;99.90;;;;;;5037995;28;20174;-70
2023/07/11 04:35:46;;;;;;;7.70;4.45;;;17.30;99.90;;;;;;5031118;28;20037;-70
2023/07/11 04:38:12;;;;;;;10.25;4.43;;;17.30;99.90;;;;;;5047893;28;20036;-70
2023/07/11 04:40:37;;;;;;;10.57;4.57;;;17.40;99.90;;;;;;5042034;28;20086;-71
2023/07/11 04:43:03;;;;;;;9.30;5.03;;;17.40;99.90;;;;;;5033692;28;20027;-71
2023/07/11 04:45:29;;;;;;;8.00;5.00;;;17.40;99.90;;;;;;5029648;28;20061;-71
2023/07/11 04:47:55;;;;;;;9.20;4.78;;;17.50;99.90;;;;;;5018012;28;20026;-71
2023/07/11 04:50:20;;;;;;;10.68;5.47;;;17.50;99.90;;;;;;5044303;28;20394;-71
2023/07/11 04:52:46;;;;;;;8.20;4.45;;;17.60;99.90;;;;;;5037268;28;20029;-71
2023/07/11 04:55:12;;;;;;;10.13;4.88;;;17.70;99.90;;;;;;5035656;28;20070;-71
2023/07/11 04:57:37;;;;;;;8.90;4.47;;;17.70;99.90;;;;;;5049250;28;20041;-71
2023/07/11 05:00:05;;;;;;;6.40;4.63;;;17.80;99.90;;;;;;5044724;28;20033;-71
2023/07/11 05:02:31;;;;;;;9.10;5.18;;;18.00;99.90;;;;;;5040232;28;20030;-71
2023/07/11 05:04:57;;;;;;;8.63;4.22;;;18.30;99.90;;;;;;5048660;28;20044;-71
2023/07/11 05:07:22;;;;;;;6.97;3.92;;;18.60;99.90;;;;;;5028196;28;20022;-71
2023/07/11 05:09:48;;;;;;;9.93;3.60;;;19.00;99.90;;;;;;5037536;28;20020;-71
2023/07/11 05:12:14;;;;;;;9.32;3.72;;;19.30;99.90;;;;;;5039846;28;20021;-71
2023/07/11 05:14:40;;;;;;;8.20;3.63;;;19.70;99.90;;;;;;5021886;28;20025;-71
2023/07/11 05:17:05;;;;;;;4.88;2.88;;;20.10;99.90;;;;;;5038328;28;20033;-71
2023/07/11 05:19:31;;;;;;;6.72;3.35;;;20.40;99.90;;;;;;5029482;28;20036;-71
2023/07/11 05:21:56;;;;;;;6.05;3.53;;;20.70;99.90;;;;;;5030020;28;20035;-71
2023/07/11 05:24:25;;;;;;;5.38;3.42;;;21.00;99.90;;;;;;5038966;28;20493;-71
2023/07/11 05:26:50;;;;;;;5.45;3.20;;;21.20;99.90;;;;;;5038056;28;20029;-71
2023/07/11 05:29:16;;;;;;;7.70;3.65;;;21.50;99.90;;;;;;5034277;28;20036;-71
2023/07/11 05:31:45;;;;;;;6.80;2.72;;;21.70;99.90;;;;;;5024849;28;20041;-72
2023/07/11 05:34:11;;;;;;;6.20;2.58;;;21.90;99.90;;;;;;5043531;28;20382;-69
2023/07/11 05:36:37;;;;;;;6.68;3.08;;;22.10;99.90;;;;;;5036509;28;20037;-69
2023/07/11 05:39:10;;;;;;;5.10;2.65;;;22.30;99.90;;;;;;5039946;28;20048;-71
2023/07/11 05:41:37;;;;;;;6.25;2.72;;;22.40;99.90;;;;;;5027021;28;20034;-71
2023/07/11 05:44:03;;;;;;;5.80;2.70;;;22.60;99.90;;;;;;5028511;28;20148;-69
2023/07/11 05:46:29;;;;;;;5.65;2.88;;;22.80;99.90;;;;;;5029162;28;20384;-71
2023/07/11 05:48:55;;;;;;;6.63;2.55;;;22.90;99.90;;;;;;5030694;28;20032;-71
2023/07/11 05:51:22;;;;;;;5.90;3.08;;;23.00;99.90;;;;;;5052917;28;20060;-71
2023/07/11 05:53:50;;;;;;;7.30;3.50;;;23.00;99.90;;;;;;5022731;28;20021;-71
2023/07/11 05:56:17;;;;;;;3.88;3.05;;;23.00;99.90;;;;;;5030716;28;20052;-71
2023/07/11 05:58:43;;;;;;;5.43;3.17;;;22.90;99.90;;;;;;5017842;28;20029;-71
2023/07/11 06:01:15;;;;;;;5.50;2.72;;;22.90;99.90;;;;;;5028332;28;20490;-71
2023/07/11 06:03:41;;;;;;;4.88;3.22;;;22.80;99.90;;;;;;5035388;28;20052;-71
2023/07/11 06:06:08;;;;;;;5.25;2.97;;;22.80;99.90;;;;;;5052948;28;20498;-71
2023/07/11 06:08:34;;;;;;;4.85;2.88;;;22.80;99.90;;;;;;5043722;28;20037;-71
2023/07/11 06:11:01;;;;;;;6.15;2.83;;;22.70;99.90;;;;;;5037288;28;20387;-69
2023/07/11 06:13:29;;;;;;;10.13;3.63;;;22.80;99.90;;;;;;5034755;28;20048;-69
2023/07/11 06:15:59;;;;;;;6.20;2.95;;;22.90;99.90;;;;;;5046695;28;20040;-70
2023/07/11 06:18:25;;;;;;;6.93;2.65;;;23.00;99.90;;;;;;5047149;28;20058;-70
2023/07/11 06:20:51;;;;;;;6.15;3.22;;;23.00;99.90;;;;;;5024293;28;20080;-70
2023/07/11 06:23:19;;;;;;;9.90;2.83;;;23.10;99.90;;;;;;5044005;28;20044;-70
2023/07/11 06:25:45;;;;;;;5.32;2.10;;;23.20;99.90;;;;;;5017311;28;20063;-70
2023/07/11 06:28:11;;;;;;;5.72;1.63;;;23.20;99.90;;;;;;5014274;28;20433;-71
2023/07/11 06:30:39;;;;;;;5.10;2.05;;;23.30;99.90;;;;;;5022715;28;20506;-70
2023/07/11 06:33:05;;;;;;;7.50;1.60;;;23.40;99.90;;;;;;5038908;28;20026;-71
2023/07/11 06:35:30;;;;;;;6.03;1.63;;;23.50;99.90;;;;;;5021559;28;20510;-71
2023/07/11 06:37:57;;;;;;;6.60;1.30;;;23.60;99.90;;;;;;5028428;28;20033;-71
2023/07/11 06:40:23;;;;;;;5.22;1.25;;;23.60;99.90;;;;;;5032546;28;20033;-71
2023/07/11 06:42:48;;;;;;;5.72;1.20;;;23.70;99.90;;;;;;5025192;28;20022;-70
2023/07/11 06:45:14;;;;;;;4.68;1.02;;;23.80;99.50;;;;;;5014889;28;20119;-70
2023/07/11 06:47:39;;;;;;;5.03;1.25;;;23.90;99.40;;;;;;5022760;28;20029;-70
2023/07/11 06:50:06;;;;;;;7.07;1.40;;;24.00;99.20;;;;;;5029155;28;20045;-70
2023/07/11 06:52:31;;;;;;;2.72;1.17;;;24.00;99.00;;;;;;5015339;28;20037;-71
2023/07/11 06:54:57;;;;;;;7.43;1.40;;;24.10;98.90;;;;;;5032572;28;20026;-71
2023/07/11 06:57:22;;;;;;;8.80;1.02;;;24.20;98.40;;;;;;5007688;28;20053;-71
2023/07/11 06:59:48;;;;;;;9.90;1.83;;;24.20;98.10;;;;;;5035417;28;20029;-71
2023/07/11 07:02:14;;;;;;;3.38;1.00;;;24.30;97.70;;;;;;5031637;28;20029;-72
2023/07/11 07:04:40;;;;;;;4.63;1.13;;;24.30;97.70;;;;;;5032695;28;20030;-71
2023/07/11 07:07:05;;;;;;;6.25;1.20;;;24.30;97.40;;;;;;5023628;28;20038;-71
2023/07/11 07:09:31;;;;;;;4.53;1.10;;;24.40;97.40;;;;;;5036158;28;20187;-71
2023/07/11 07:11:56;;;;;;;3.30;1.15;;;24.40;97.40;;;;;;5024260;28;20140;-70
2023/07/11 07:14:22;;;;;;;6.13;1.10;;;24.50;97.00;;;;;;5024538;28;20098;-70
2023/07/11 07:16:47;;;;;;;5.75;1.20;;;24.60;96.80;;;;;;5036039;28;20132;-70
2023/07/11 07:19:13;;;;;;;2.78;0.95;;;24.70;96.60;;;;;;5039630;28;20395;-70
2023/07/11 07:21:38;;;;;;;6.00;1.10;;;24.70;96.10;;;;;;5032930;28;20060;-70
2023/07/11 07:24:05;;;;;;;3.33;0.82;;;24.80;95.70;;;;;;5032378;28;20029;-71
2023/07/11 07:26:31;;;;;;;5.18;1.38;;;24.90;95.50;;;;;;5015145;28;20467;-71
2023/07/11 07:28:56;;;;;;;3.45;1.00;;;24.90;94.90;;;;;;5028845;28;20093;-71
2023/07/11 07:31:23;;;;;;;5.32;1.30;;;25.00;94.50;;;;;;5022988;28;20151;-71
2023/07/11 07:33:48;;;;;;;6.80;1.38;;;25.10;94.50;;;;;;5032680;28;20034;-70
2023/07/11 07:36:14;;;;;;;4.93;1.20;;;25.10;94.30;;;;;;5030313;28;20033;-71
2023/07/11 07:38:39;;;;;;;3.53;0.95;;;25.20;94.20;;;;;;4994373;28;20033;-71
2023/07/11 07:41:08;;;;;;;4.35;0.95;;;25.30;94.00;;;;;;5020275;28;20075;-70
2023/07/11 07:43:36;;;;;;;5.03;1.15;;;25.30;94.20;;;;;;5024063;28;20029;-70
2023/07/11 07:46:03;;;;;;;5.57;1.00;;;25.50;93.80;;;;;;5019038;28;20037;-71
2023/07/11 07:48:29;;;;;;;8.40;1.00;;;25.60;93.20;;;;;;5026485;28;20034;-71
2023/07/11 07:51:06;;;;;;;5.18;0.90;;;25.60;93.00;;;;;;5030676;28;20083;-70
2023/07/11 07:53:32;;;;;;;5.38;0.90;;;25.70;92.60;;;;;;5015102;28;20029;-70
2023/07/11 07:56:13;;;;;;;5.65;0.63;;;25.80;92.20;;;;;;5015383;28;20151;-71
2023/07/11 07:58:39;;;;;;;7.13;1.10;;;25.90;91.80;;;;;;5047229;28;20072;-72
2023/07/11 08:01:05;;;;;;;3.72;0.70;;;26.00;91.30;;;;;;5048092;28;20599;-72
2023/07/11 08:03:31;;;;;;;3.30;0.55;;;26.10;90.80;;;;;;5058571;28;20025;-71
2023/07/11 08:05:57;;;;;;;5.43;0.90;;;26.20;90.30;;;;;;5055760;28;20490;-72
2023/07/11 08:08:23;;;;;;;3.42;0.70;;;26.30;90.00;;;;;;5055562;28;20029;-72
2023/07/11 08:10:50;;;;;;;4.18;0.70;;;26.40;88.70;;;;;;5048951;28;20129;-71
2023/07/11 08:13:16;;;;;;;4.10;0.80;;;26.50;87.10;;;;;;5047271;28;20053;-71
2023/07/11 08:15:42;;;;;;;2.28;0.55;;;26.40;86.20;;;;;;5038310;28;20106;-72
2023/07/11 08:18:09;;;;;;;4.38;0.60;;;26.50;86.30;;;;;;5041661;28;20028;-71
2023/07/11 08:20:34;;;;;;;4.55;0.95;;;26.50;84.70;;;;;;5026136;28;20359;-71
2023/07/11 08:23:00;;;;;;;14.73;2.97;;;26.60;84.20;;;;;;5048921;28;20025;-71
2023/07/11 08:25:25;;;;;;;3.75;0.60;;;26.80;84.00;;;;;;5048525;28;20086;-71
2023/07/11 08:27:51;;;;;;;20.42;3.20;;;26.90;83.10;;;;;;5048104;28;20070;-71
2023/07/11 08:30:17;;;;;;;1.95;0.60;;;27.00;83.30;;;;;;5043262;28;20041;-71
2023/07/11 08:32:43;;;;;;;6.07;1.10;;;27.10;82.20;;;;;;5044186;28;20025;-71
2023/07/11 08:35:09;;;;;;;4.80;0.73;;;27.20;81.50;;;;;;5042955;28;20067;-71
2023/07/11 08:37:34;;;;;;;3.17;0.52;;;27.10;81.10;;;;;;5053531;28;20025;-71
2023/07/11 08:40:02;;;;;;;3.85;0.60;;;27.10;80.60;;;;;;5046128;28;20067;-72
2023/07/11 08:42:31;;;;;;;5.47;1.02;;;27.00;80.70;;;;;;5048413;28;20026;-72
2023/07/11 08:45:30;;;;;;;3.38;0.60;;;27.00;81.80;;;;;;5048527;28;20071;-71
2023/07/11 08:48:24;;;;;;;2.53;0.57;;;27.00;81.50;;;;;;5046301;28;20398;-72
2023/07/11 08:51:20;;;;;;;4.05;1.00;;;26.90;81.50;;;;;;5047501;28;20027;-71
2023/07/11 08:53:51;;;;;;;6.05;0.80;;;26.70;81.30;;;;;;5049903;28;20036;-72
2023/07/11 08:56:21;;;;;;;3.83;0.70;;;26.60;81.90;;;;;;5040247;28;20045;-71
2023/07/11 08:58:49;;;;;;;4.00;0.80;;;26.40;82.30;;;;;;5042756;28;20419;-71
2023/07/11 09:01:57;;;;;;;8.00;0.90;;;26.40;83.30;;;;;;5047016;28;20067;-71
2023/07/11 09:04:24;;;;;;;2.83;0.82;;;26.70;83.40;;;;;;5039165;28;20029;-70
2023/07/11 09:06:57;;;;;;;4.20;0.60;;;26.70;82.10;;;;;;5038362;28;20506;-71
2023/07/11 09:09:24;;;;;;;2.40;0.60;;;26.70;82.10;;;;;;5043291;28;20025;-71
2023/07/11 09:12:49;;;;;;;2.50;0.60;;;26.70;82.60;;;;;;5039911;28;20033;-71
2023/07/11 09:15:40;;;;;;;4.82;0.68;;;26.90;82.80;;;;;;4937315;28;20036;-71
2023/07/11 09:18:43;;;;;;;5.27;0.70;;;27.10;82.60;;;;;;5042932;28;23268;-71
2023/07/11 09:21:15;;;;;;;3.65;0.50;;;27.20;81.10;;;;;;5044753;28;20086;-71
2023/07/11 09:24:04;;;;;;;3.10;0.50;;;27.10;80.70;;;;;;5042887;28;20148;-71
2023/07/11 09:26:33;;;;;;;5.50;0.60;;;27.00;81.50;;;;;;5042346;28;20088;-71
2023/07/11 09:29:03;;;;;;;3.28;0.60;;;26.90;81.30;;;;;;5042372;28;20033;-71
2023/07/11 09:31:38;;;;;;;4.50;0.60;;;26.90;81.80;;;;;;5043604;28;20025;-71
2023/07/11 09:34:21;;;;;;;3.90;0.60;;;27.00;82.30;;;;;;5043521;28;20028;-71
2023/07/11 09:36:48;;;;;;;2.20;0.60;;;27.20;80.70;;;;;;5027249;28;20028;-71
2023/07/11 09:39:23;;;;;;;4.93;0.50;;;27.30;79.40;;;;;;5045120;28;20025;-71
2023/07/11 09:41:58;;;;;;;3.05;0.50;;;27.50;80.00;;;;;;5045427;28;20112;-72
2023/07/11 09:44:23;;;;;;;4.07;0.57;;;27.80;80.00;;;;;;5042486;28;20501;-72
2023/07/11 09:46:49;;;;;;;3.08;0.70;;;28.00;77.60;;;;;;5036285;28;20032;-71
2023/07/11 09:49:28;;;;;;;2.80;0.80;;;28.10;77.70;;;;;;5044403;28;20520;-71
2023/07/11 09:51:56;;;;;;;4.75;0.95;;;28.10;77.30;;;;;;5045225;28;20021;-72
2023/07/11 09:54:24;;;;;;;3.53;0.60;;;28.20;76.90;;;;;;5046737;28;20036;-71
2023/07/11 09:56:50;;;;;;;4.28;0.60;;;28.30;76.00;;;;;;5043724;28;20452;-72
2023/07/11 09:59:18;;;;;;;3.38;0.80;;;28.40;75.20;;;;;;5049613;28;20024;-71
2023/07/11 10:01:43;;;;;;;3.10;0.50;;;28.60;74.80;;;;;;5046864;28;20021;-71
2023/07/11 10:04:15;;;;;;;3.97;0.50;;;28.80;73.90;;;;;;5028241;28;20034;-71
2023/07/11 10:06:52;;;;;;;;;;;28.90;73.20;;;;;;5034955;28;20045;-71
2023/07/11 10:09:31;;;;;;;2.85;0.55;;;28.70;73.00;;;;;;5035802;28;20355;-72
2023/07/11 10:12:11;;;;;;;2.90;0.57;;;28.60;73.50;;;;;;5037614;28;20037;-72
2023/07/11 10:14:42;;;;;;;3.75;0.80;;;28.70;72.90;;;;;;5048809;28;20090;-71
2023/07/11 10:17:43;;;;;;;4.13;0.73;;;28.70;72.20;;;;;;5050373;28;20375;-72
2023/07/11 10:20:15;;;;;;;4.68;0.82;;;28.70;71.80;;;;;;5048121;28;20559;-72
2023/07/11 10:22:43;;;;;;;2.80;0.80;;;28.60;71.10;;;;;;5048840;28;20048;-72
2023/07/11 10:25:19;;;;;;;2.58;0.80;;;28.60;71.60;;;;;;5043080;28;20087;-71
2023/07/11 10:28:01;;;;;;;4.95;1.05;;;28.70;70.70;;;;;;5049547;28;20033;-72
2023/07/11 10:30:32;;;;;;;3.70;0.73;;;28.60;70.00;;;;;;5044188;28;20475;-71
2023/07/11 10:33:15;;;;;;;3.83;0.70;;;28.50;70.20;;;;;;5055443;28;20021;-72
2023/07/11 10:35:41;;;;;;;5.07;0.80;;;28.60;70.90;;;;;;5053130;28;20056;-72
2023/07/11 10:38:25;;;;;;;2.72;0.80;;;28.60;70.90;;;;;;5047769;28;20025;-71
2023/07/11 10:40:55;;;;;;;4.93;0.90;;;28.70;71.30;;;;;;5046283;28;20029;-72
2023/07/11 10:43:29;;;;;;;3.65;0.70;;;28.80;71.50;;;;;;5046453;28;20083;-72
2023/07/11 10:46:18;;;;;;;3.60;0.73;;;29.00;71.20;;;;;;5052986;28;20093;-71
2023/07/11 10:48:54;;;;;;;5.43;0.93;;;29.10;70.80;;;;;;5047645;28;20021;-72
2023/07/11 10:51:25;;;;;;;4.63;0.65;;;29.20;69.90;;;;;;5046615;28;20423;-72
2023/07/11 10:54:39;;;;;;;5.57;0.70;;;29.20;69.90;;;;;;5043600;28;20071;-72
2023/07/11 10:57:15;;;;;;;3.70;0.65;;;29.50;69.70;;;;;;4962223;28;20157;-72
2023/07/11 10:59:41;;;;;;;2.13;0.60;;;29.70;68.50;;;;;;5046383;28;20035;-72
2023/07/11 11:02:18;;;;;;;2.28;0.70;;;29.80;68.00;;;;;;5050799;28;20107;-72
2023/07/11 11:05:24;;;;;;;6.82;1.02;;;30.00;67.70;;;;;;5050833;28;20104;-74
2023/07/11 11:07:57;;;;;;;2.90;0.70;;;30.10;67.50;;;;;;4974779;28;20046;-73
2023/07/11 11:10:32;;;;;;;5.00;1.05;;;30.00;67.20;;;;;;5071225;28;20024;-72
2023/07/11 11:13:31;;;;;;;3.47;0.80;;;30.10;67.90;;;;;;5054224;28;20067;-72
2023/07/11 11:16:13;;;;;;;4.13;1.00;;;30.00;67.50;;;;;;5038602;28;20489;-72
2023/07/11 11:18:42;;;;;;;2.58;0.70;;;29.90;67.50;;;;;;5050798;28;20052;-73
2023/07/11 11:21:26;;;;;;;5.30;1.13;;;29.90;67.60;;;;;;5059274;28;20028;-73
2023/07/11 11:24:22;;;;;;;3.50;0.70;;;30.00;67.60;;;;;;5043998;28;20029;-72
2023/07/11 11:27:00;;;;;;;2.38;0.73;;;30.10;66.90;;;;;;5047981;28;20048;-72
2023/07/11 11:29:46;;;;;;;1.92;0.50;;;30.00;66.40;;;;;;5047055;28;20036;-71
2023/07/11 11:32:24;;;;;;;3.22;0.75;;;30.10;66.60;;;;;;5049390;28;20061;-72
2023/07/11 11:35:04;;;;;;;3.40;0.60;;;30.10;66.00;;;;;;5049476;28;20510;-72
2023/07/11 11:38:04;;;;;;;2.45;0.70;;;30.20;65.70;;;;;;5047264;28;20025;-72
2023/07/11 11:40:32;;;;;;;3.63;0.70;;;30.20;65.80;;;;;;5052310;28;20471;-72
2023/07/11 11:43:03;;;;;;;4.47;1.00;;;30.20;65.80;;;;;;5053675;28;20032;-71
2023/07/11 11:45:30;;;;;;;2.85;0.75;;;30.20;66.70;;;;;;5046301;28;20052;-72
2023/07/11 11:47:59;;;;;;;4.63;0.70;;;30.40;66.70;;;;;;5047662;28;20021;-72
2023/07/11 11:50:28;;;;;;;3.60;0.82;;;30.40;66.20;;;;;;5027216;28;20028;-71
2023/07/11 11:53:15;;;;;;;4.75;1.40;;;30.40;65.60;;;;;;5040579;28;20021;-73
2023/07/11 11:55:59;;;;;;;3.72;0.80;;;30.30;65.60;;;;;;5047308;28;20509;-73
2023/07/11 11:58:29;;;;;;;4.00;0.80;;;30.40;65.40;;;;;;5042278;28;20124;-73
2023/07/11 12:00:56;;;;;;;4.75;0.70;;;30.30;65.10;;;;;;5035541;28;20025;-72
2023/07/11 12:03:34;;;;;;;3.70;1.08;;;30.20;64.70;;;;;;5037796;28;20083;-71
2023/07/11 12:06:03;;;;;;;4.18;1.05;;;30.00;64.70;;;;;;5039287;28;20029;-72
2023/07/11 12:08:37;;;;;;;3.30;0.70;;;29.80;64.80;;;;;;5038838;28;20482;-72
2023/07/11 12:11:09;;;;;;;4.47;1.02;;;29.70;65.40;;;;;;5042152;28;20029;-72
2023/07/11 12:13:40;;;;;;;4.22;0.80;;;29.60;65.90;;;;;;5040305;28;20159;-72
2023/07/11 12:16:23;;;;;;;4.05;0.80;;;29.70;66.30;;;;;;5038076;28;20029;-72
2023/07/11 12:18:56;;;;;;;4.95;0.93;;;29.80;66.10;;;;;;5025126;28;20032;-72
2023/07/11 12:21:41;;;;;;;2.95;0.60;;;29.90;66.40;;;;;;5023827;28;20028;-72
2023/07/11 12:24:40;;;;;;;2.85;1.00;;;30.00;66.50;;;;;;5043678;28;20017;-72
2023/07/11 12:27:24;;;;;;;3.33;0.70;;;30.10;65.00;;;;;;5047438;28;20036;-72
2023/07/11 12:29:51;;;;;;;3.55;0.77;;;30.00;65.30;;;;;;5037439;28;20120;-72
2023/07/11 12:32:31;;;;;;;5.25;1.00;;;30.20;65.90;;;;;;5046528;28;20025;-72
2023/07/11 12:35:06;;;;;;;2.20;0.52;;;30.40;65.20;;;;;;5045094;28;20113;-71
2023/07/11 12:37:46;;;;;;;1.92;0.70;;;30.50;64.60;;;;;;5051607;28;20035;-72
2023/07/11 12:40:46;;;;;;;5.63;0.90;;;30.60;64.20;;;;;;5047000;28;20029;-72
2023/07/11 12:43:26;;;;;;;2.55;0.68;;;30.70;63.20;;;;;;5049288;28;20045;-72
2023/07/11 12:45:57;;;;;;;2.67;0.73;;;30.50;63.30;;;;;;5045179;28;20359;-72
2023/07/11 12:48:31;;;;;;;3.97;0.73;;;30.50;63.90;;;;;;5052572;28;20549;-71
2023/07/11 12:51:04;;;;;;;2.47;0.70;;;30.40;63.60;;;;;;5044527;28;20044;-73
2023/07/11 12:53:34;;;;;;;3.35;0.90;;;30.50;64.50;;;;;;5049813;28;20029;-73
2023/07/11 12:56:00;;;;;;;5.38;1.00;;;30.60;63.60;;;;;;5048987;28;20589;-73
2023/07/11 12:58:28;;;;;;;3.22;0.77;;;30.70;64.40;;;;;;5059838;28;20104;-72
2023/07/11 13:00:57;;;;;;;3.47;0.98;;;30.80;64.30;;;;;;5063158;28;20029;-71